Time;durP1;ratioP1;P1;durP2;ratioP2;P2;SDS_P1;SDS_P2;PMS_P1;PMS_P2;Temp;Humidity;BMP_temperature;BMP_pressure;BME280_temperature;BME280_humidity;BME280_pressure;Samples;Min_cycle;Max_cycle;Signal;HPM_P1;HPM_P2
2023/01/28 00:00:08;;;;;;;14.77;2.95;;;;;;;;;;5066216;28;20055;-74
2023/01/28 00:02:38;;;;;;;7.68;2.33;;;;;;;;;;5067948;28;20049;-76
2023/01/28 00:05:10;;;;;;;10.02;2.70;;;;;;;;;;5069913;28;20045;-73
2023/01/28 00:07:41;;;;;;;5.90;2.05;;;;;;;;;;5070119;28;20045;-74
2023/01/28 00:10:12;;;;;;;7.55;1.95;;;;;;;;;;5069554;28;20060;-74
2023/01/28 00:12:43;;;;;;;6.40;1.98;;;;;;;;;;5070542;28;20048;-75
2023/01/28 00:15:14;;;;;;;7.35;2.35;;;;;;;;;;5069256;28;20503;-76
2023/01/28 00:17:45;;;;;;;7.05;2.75;;;;;;;;;;5069844;28;20064;-75
2023/01/28 00:20:16;;;;;;;9.13;2.47;;;;;;;;;;5069814;28;20412;-77
2023/01/28 00:22:48;;;;;;;7.55;2.33;;;;;;;;;;5069904;28;20402;-75
2023/01/28 00:25:20;;;;;;;4.65;2.38;;;;;;;;;;5069983;28;20041;-74
2023/01/28 00:27:50;;;;;;;3.17;2.22;;;;;;;;;;5069652;28;20387;-74
2023/01/28 00:30:22;;;;;;;6.30;2.00;;;;;;;;;;5070764;28;20040;-76
2023/01/28 00:32:59;;;;;;;7.70;2.28;;;;;;;;;;5070873;28;20045;-75
2023/01/28 00:35:29;;;;;;;7.35;2.63;;;;;;;;;;5069550;28;20053;-76
2023/01/28 00:38:02;;;;;;;5.28;2.08;;;;;;;;;;5068269;28;20052;-75
2023/01/28 00:40:34;;;;;;;7.35;2.20;;;;;;;;;;5069358;28;20507;-74
2023/01/28 00:43:05;;;;;;;3.50;2.08;;;;;;;;;;5069122;28;20411;-74
2023/01/28 00:45:37;;;;;;;9.88;2.67;;;;;;;;;;5069119;28;20053;-76
2023/01/28 00:48:08;;;;;;;9.27;2.63;;;;;;;;;;5070145;28;20051;-74
2023/01/28 00:50:40;;;;;;;6.97;2.40;;;;;;;;;;5069188;28;20045;-74
2023/01/28 00:53:11;;;;;;;5.72;2.45;;;;;;;;;;5067733;28;20056;-75
2023/01/28 00:55:42;;;;;;;3.75;2.33;;;;;;;;;;5069216;28;20526;-73
2023/01/28 00:58:12;;;;;;;5.78;2.13;;;;;;;;;;5069337;28;20059;-73
2023/01/28 01:00:45;;;;;;;8.82;2.40;;;;;;;;;;5067769;28;20522;-75
2023/01/28 01:03:19;;;;;;;5.88;1.92;;;;;;;;;;5067204;28;20056;-73
2023/01/28 01:05:49;;;;;;;8.98;2.80;;;;;;;;;;5068508;28;20055;-75
2023/01/28 01:08:33;;;;;;;7.15;2.20;;;;;;;;;;5067330;28;20410;-74
2023/01/28 01:11:06;;;;;;;4.28;2.00;;;;;;;;;;5067045;28;20044;-77
2023/01/28 01:13:40;;;;;;;5.85;2.70;;;;;;;;;;5065490;28;20759;-75
2023/01/28 01:16:18;;;;;;;5.88;2.20;;;;;;;;;;5067125;28;20048;-76
2023/01/28 01:18:51;;;;;;;7.95;2.40;;;;;;;;;;5066952;28;20045;-73
2023/01/28 01:21:25;;;;;;;6.30;2.72;;;;;;;;;;5067756;28;20048;-74
2023/01/28 01:23:56;;;;;;;9.02;2.70;;;;;;;;;;5066106;28;20623;-76
2023/01/28 01:26:27;;;;;;;7.57;2.28;;;;;;;;;;5067982;28;20052;-75
2023/01/28 01:28:59;;;;;;;12.63;2.35;;;;;;;;;;5066963;28;20060;-75
2023/01/28 01:31:31;;;;;;;12.95;2.30;;;;;;;;;;5068799;28;20526;-74
2023/01/28 01:34:01;;;;;;;4.50;2.00;;;;;;;;;;5068799;28;20455;-74
2023/01/28 01:36:32;;;;;;;9.90;2.25;;;;;;;;;;5068757;28;20075;-76
2023/01/28 01:39:02;;;;;;;9.55;3.00;;;;;;;;;;5068629;28;20407;-76
2023/01/28 01:41:41;;;;;;;9.93;2.63;;;;;;;;;;5067116;28;20052;-75
2023/01/28 01:44:49;;;;;;;9.48;3.00;;;;;;;;;;5068629;28;20052;-75
2023/01/28 01:47:42;;;;;;;16.33;2.83;;;;;;;;;;5069239;28;20056;-76
2023/01/28 01:50:43;;;;;;;9.38;2.25;;;;;;;;;;5066706;28;20080;-74
2023/01/28 01:53:33;;;;;;;6.22;2.20;;;;;;;;;;5066640;28;20056;-74
2023/01/28 01:56:10;;;;;;;10.45;2.80;;;;;;;;;;5063761;28;20052;-74
2023/01/28 01:58:45;;;;;;;8.85;2.30;;;;;;;;;;5068257;28;20051;-75
2023/01/28 02:01:18;;;;;;;7.93;2.60;;;;;;;;;;5066820;28;20049;-75
2023/01/28 02:04:19;;;;;;;4.22;2.10;;;;;;;;;;5067987;28;20823;-74
2023/01/28 02:06:49;;;;;;;10.40;2.95;;;;;;;;;;5067922;28;20044;-76
2023/01/28 02:09:37;;;;;;;9.23;2.88;;;;;;;;;;5068153;28;20040;-74
2023/01/28 02:12:36;;;;;;;10.55;2.97;;;;;;;;;;5067756;28;20087;-74
2023/01/28 02:15:09;;;;;;;4.90;2.03;;;;;;;;;;5068088;28;20055;-76
2023/01/28 02:17:42;;;;;;;6.85;2.95;;;;;;;;;;5068285;28;20044;-75
2023/01/28 02:20:48;;;;;;;7.90;2.90;;;;;;;;;;5066028;28;20063;-75
2023/01/28 02:23:38;;;;;;;6.38;3.00;;;;;;;;;;5066179;28;20044;-75
2023/01/28 02:26:42;;;;;;;7.90;2.72;;;;;;;;;;5065162;28;20071;-74
2023/01/28 02:29:39;;;;;;;6.85;2.47;;;;;;;;;;5067969;28;20040;-76
2023/01/28 02:32:38;;;;;;;6.18;2.85;;;;;;;;;;5030752;28;20048;-74
2023/01/28 02:35:24;;;;;;;10.82;2.70;;;;;;;;;;5065768;28;20056;-76
2023/01/28 02:38:07;;;;;;;6.03;2.70;;;;;;;;;;5065965;28;20052;-76
2023/01/28 02:43:36;;;;;;;10.10;3.00;;;;;;;;;;5064554;28;20048;-74
2023/01/28 02:49:30;;;;;;;9.82;2.67;;;;;;;;;;5067345;28;20045;-74
2023/01/28 02:55:34;;;;;;;13.10;3.10;;;;;;;;;;5065112;28;20056;-74
2023/01/28 02:58:27;;;;;;;6.45;2.60;;;;;;;;;;5066978;28;20434;-75
2023/01/28 03:01:19;;;;;;;4.93;2.83;;;;;;;;;;5067158;28;20055;-75
2023/01/28 03:04:04;;;;;;;5.95;2.40;;;;;;;;;;5067207;28;20519;-76
2023/01/28 03:06:43;;;;;;;6.80;2.72;;;;;;;;;;5065676;28;20635;-73
2023/01/28 03:09:23;;;;;;;6.18;3.28;;;;;;;;;;5067222;28;20041;-74
2023/01/28 03:39:29;;;;;;;7.50;2.50;;;;;;;;;;5065435;28;20407;-75
2023/01/28 03:42:06;;;;;;;6.82;2.53;;;;;;;;;;5065401;28;20047;-76
2023/01/28 03:44:55;;;;;;;8.65;3.28;;;;;;;;;;5065062;28;20071;-75
2023/01/28 03:47:28;;;;;;;8.05;3.10;;;;;;;;;;5064949;28;20059;-73
2023/01/28 03:50:06;;;;;;;6.00;2.78;;;;;;;;;;5064665;28;20048;-74
2023/01/28 03:52:53;;;;;;;8.57;3.15;;;;;;;;;;5064770;28;20076;-74
2023/01/28 03:55:30;;;;;;;6.97;3.13;;;;;;;;;;5064866;28;20059;-75
2023/01/28 03:58:02;;;;;;;7.88;2.80;;;;;;;;;;5064875;28;20052;-75
2023/01/28 04:00:40;;;;;;;5.90;2.97;;;;;;;;;;5064478;28;20067;-76
2023/01/28 04:03:18;;;;;;;8.20;2.70;;;;;;;;;;5065151;28;20064;-74
2023/01/28 04:05:59;;;;;;;11.82;3.22;;;;;;;;;;5064751;28;20063;-75
2023/01/28 04:08:53;;;;;;;6.35;2.58;;;;;;;;;;5064981;28;20391;-75
2023/01/28 04:11:40;;;;;;;5.90;2.50;;;;;;;;;;5066077;28;20060;-74
2023/01/28 04:14:16;;;;;;;6.32;2.95;;;;;;;;;;5064294;28;20045;-76
2023/01/28 04:17:12;;;;;;;5.22;3.45;;;;;;;;;;5064061;28;20418;-75
2023/01/28 04:19:46;;;;;;;11.32;2.80;;;;;;;;;;5064606;28;20048;-74
2023/01/28 04:22:18;;;;;;;7.55;3.05;;;;;;;;;;5064657;28;20463;-74
2023/01/28 04:24:48;;;;;;;5.95;2.78;;;;;;;;;;5064498;28;20414;-74
2023/01/28 04:27:19;;;;;;;8.82;3.40;;;;;;;;;;5064264;28;20071;-76
2023/01/28 04:29:50;;;;;;;6.20;3.28;;;;;;;;;;5064367;28;20064;-74
2023/01/28 04:32:38;;;;;;;5.93;2.80;;;;;;;;;;5063907;28;20051;-74
2023/01/28 04:35:38;;;;;;;18.70;3.47;;;;;;;;;;5028695;28;20054;-75
2023/01/28 04:38:30;;;;;;;5.90;3.15;;;;;;;;;;5037543;28;20056;-75
2023/01/28 04:41:28;;;;;;;7.32;3.25;;;;;;;;;;5064565;28;20053;-75
2023/01/28 04:44:06;;;;;;;7.05;2.95;;;;;;;;;;5063535;28;20410;-75
2023/01/28 04:47:08;;;;;;;10.45;3.45;;;;;;;;;;5042815;28;20526;-74
2023/01/28 04:49:55;;;;;;;5.35;3.28;;;;;;;;;;5066338;28;20053;-74
2023/01/28 04:52:42;;;;;;;8.30;3.28;;;;;;;;;;5067635;28;20048;-73
2023/01/28 04:55:30;;;;;;;9.07;3.15;;;;;;;;;;5069544;28;20048;-75
2023/01/28 04:58:01;;;;;;;6.90;3.20;;;;;;;;;;5068087;28;20103;-75
2023/01/28 05:00:32;;;;;;;8.82;3.00;;;;;;;;;;5051875;28;20060;-75
2023/01/28 05:03:03;;;;;;;6.40;3.80;;;;;;;;;;5067985;28;20418;-74
2023/01/28 05:05:33;;;;;;;14.63;3.27;;;;;;;;;;5068461;28;20075;-75
2023/01/28 05:19:11;;;;;;;7.75;2.80;;;;;;;;;;5124922;27;20439;-74
2023/01/28 05:21:45;;;;;;;10.55;3.22;;;;;;;;;;5122970;28;20051;-74
2023/01/28 05:24:48;;;;;;;6.43;3.22;;;;;;;;;;5111760;28;20051;-74
2023/01/28 05:27:20;;;;;;;5.53;3.03;;;;;;;;;;5122009;28;20054;-74
2023/01/28 05:29:50;;;;;;;8.60;2.95;;;;;;;;;;5122565;28;20048;-74
2023/01/28 05:32:21;;;;;;;13.85;3.38;;;;;;;;;;5124344;27;20066;-74
2023/01/28 05:34:51;;;;;;;7.78;3.33;;;;;;;;;;5122881;28;20583;-74
2023/01/28 05:37:21;;;;;;;5.10;3.25;;;;;;;;;;5121885;28;20596;-74
2023/01/28 05:39:56;;;;;;;11.45;3.60;;;;;;;;;;5122469;28;20097;-74
2023/01/28 05:42:28;;;;;;;7.78;3.28;;;;;;;;;;5123951;28;20043;-74
2023/01/28 05:45:12;;;;;;;4.63;2.70;;;;;;;;;;5121886;28;20051;-74
2023/01/28 05:48:01;;;;;;;12.18;3.58;;;;;;;;;;5128703;27;20052;-74
2023/01/28 05:50:48;;;;;;;7.05;3.45;;;;;;;;;;5122366;28;20059;-74
2023/01/28 05:53:32;;;;;;;4.32;3.40;;;;;;;;;;5121956;28;20055;-74
2023/01/28 05:56:04;;;;;;;6.50;3.28;;;;;;;;;;5122910;28;20055;-74
2023/01/28 05:58:36;;;;;;;8.80;3.10;;;;;;;;;;5122466;28;20040;-74
2023/01/28 06:01:08;;;;;;;10.88;3.13;;;;;;;;;;5123943;28;20051;-74
2023/01/28 06:03:46;;;;;;;8.32;3.45;;;;;;;;;;5121834;28;20417;-74
2023/01/28 06:06:18;;;;;;;9.15;3.33;;;;;;;;;;5122081;28;20409;-74
2023/01/28 06:08:49;;;;;;;4.95;2.83;;;;;;;;;;5121948;28;20052;-74
2023/01/28 06:11:27;;;;;;;6.38;3.17;;;;;;;;;;5121560;28;20055;-74
2023/01/28 06:14:03;;;;;;;5.70;3.10;;;;;;;;;;5121288;28;20055;-74
2023/01/28 06:16:51;;;;;;;8.48;3.20;;;;;;;;;;5121309;28;20672;-74
2023/01/28 06:19:36;;;;;;;8.80;3.78;;;;;;;;;;5110584;28;20494;-74
2023/01/28 06:22:09;;;;;;;8.32;3.50;;;;;;;;;;5107680;28;20067;-74
2023/01/28 06:24:40;;;;;;;5.30;3.03;;;;;;;;;;5109604;28;20403;-74
2023/01/28 06:27:10;;;;;;;9.88;2.97;;;;;;;;;;5107556;28;20050;-74
2023/01/28 06:29:41;;;;;;;10.77;3.10;;;;;;;;;;5110153;28;20501;-74
2023/01/28 06:32:12;;;;;;;8.50;3.08;;;;;;;;;;5108751;28;20086;-74
2023/01/28 06:34:43;;;;;;;4.07;3.22;;;;;;;;;;5107961;28;20062;-74
2023/01/28 06:37:14;;;;;;;7.35;3.30;;;;;;;;;;5109452;28;20039;-74
2023/01/28 06:39:45;;;;;;;10.77;3.10;;;;;;;;;;5109882;28;20591;-74
2023/01/28 06:42:15;;;;;;;7.57;2.92;;;;;;;;;;5109733;28;20039;-74
2023/01/28 06:44:47;;;;;;;5.93;3.33;;;;;;;;;;5108041;28;20047;-74
2023/01/28 06:47:16;;;;;;;9.80;3.63;;;;;;;;;;5109313;28;20047;-74
2023/01/28 06:49:47;;;;;;;5.38;3.33;;;;;;;;;;5109209;28;20051;-74
2023/01/28 06:52:17;;;;;;;4.95;2.90;;;;;;;;;;5107086;28;20051;-74
2023/01/28 06:54:48;;;;;;;4.95;3.05;;;;;;;;;;5109941;28;20417;-74
2023/01/28 06:57:18;;;;;;;8.98;3.60;;;;;;;;;;5109334;28;20880;-74
2023/01/28 06:59:48;;;;;;;5.78;3.33;;;;;;;;;;5108967;28;20055;-74
2023/01/28 07:02:19;;;;;;;9.10;3.20;;;;;;;;;;5109092;28;20493;-74
2023/01/28 07:04:50;;;;;;;11.15;3.15;;;;;;;;;;5109348;28;20080;-74
2023/01/28 07:07:20;;;;;;;7.85;3.38;;;;;;;;;;5109155;28;20429;-74
2023/01/28 07:09:51;;;;;;;6.63;3.33;;;;;;;;;;5108708;28;20043;-74
2023/01/28 07:12:21;;;;;;;5.93;3.35;;;;;;;;;;5108845;28;20058;-74
2023/01/28 07:14:51;;;;;;;9.65;3.22;;;;;;;;;;5109338;28;20405;-75
2023/01/28 07:17:21;;;;;;;14.77;3.72;;;;;;;;;;5108970;28;20421;-74
2023/01/28 07:19:52;;;;;;;10.60;3.20;;;;;;;;;;5108904;28;20055;-74
2023/01/28 07:22:22;;;;;;;5.03;3.05;;;;;;;;;;5108624;28;20055;-74
2023/01/28 07:24:53;;;;;;;10.05;3.72;;;;;;;;;;5108205;28;20516;-74
2023/01/28 07:27:23;;;;;;;8.73;3.50;;;;;;;;;;5108396;28;20074;-74
2023/01/28 07:29:53;;;;;;;8.30;3.22;;;;;;;;;;5107454;28;20533;-74
2023/01/28 07:32:26;;;;;;;6.05;3.25;;;;;;;;;;5107904;28;20417;-74
2023/01/28 07:34:57;;;;;;;11.30;3.40;;;;;;;;;;5108458;28;20047;-74
2023/01/28 07:37:27;;;;;;;10.57;3.47;;;;;;;;;;5109083;28;20490;-74
2023/01/28 07:39:57;;;;;;;9.70;3.58;;;;;;;;;;5108155;28;20054;-74
2023/01/28 07:42:28;;;;;;;9.60;3.20;;;;;;;;;;5108490;28;20051;-74
2023/01/28 07:45:05;;;;;;;9.27;3.42;;;;;;;;;;5106473;28;20060;-74
2023/01/28 07:47:35;;;;;;;9.18;3.45;;;;;;;;;;5107980;28;20055;-74
2023/01/28 07:50:05;;;;;;;11.02;3.88;;;;;;;;;;5108596;28;20061;-74
2023/01/28 07:52:43;;;;;;;8.40;3.50;;;;;;;;;;5106750;28;20043;-74
2023/01/28 07:55:14;;;;;;;4.60;3.58;;;;;;;;;;5108331;28;20055;-74
2023/01/28 07:57:55;;;;;;;10.07;4.30;;;;;;;;;;5107903;28;20047;-74
2023/01/28 08:00:27;;;;;;;10.35;3.60;;;;;;;;;;5106656;28;20048;-74
2023/01/28 08:03:00;;;;;;;8.10;3.42;;;;;;;;;;5108040;28;20043;-74
2023/01/28 08:05:42;;;;;;;6.95;3.38;;;;;;;;;;5107596;28;20039;-74
2023/01/28 08:08:13;;;;;;;6.93;3.70;;;;;;;;;;5105664;28;20063;-74
2023/01/28 08:10:44;;;;;;;7.78;3.67;;;;;;;;;;5107144;28;20050;-74
2023/01/28 08:13:16;;;;;;;6.97;3.20;;;;;;;;;;5107429;28;20044;-74
2023/01/28 08:15:47;;;;;;;7.20;3.63;;;;;;;;;;5105286;28;20502;-74
2023/01/28 08:18:18;;;;;;;7.75;3.97;;;;;;;;;;5107748;28;20074;-74
2023/01/28 08:20:48;;;;;;;7.28;3.92;;;;;;;;;;5107687;28;20043;-74
2023/01/28 08:23:19;;;;;;;7.05;3.65;;;;;;;;;;5107270;28;20059;-74
2023/01/28 08:25:53;;;;;;;10.82;4.60;;;;;;;;;;5106675;28;20055;-74
2023/01/28 08:28:24;;;;;;;10.32;3.70;;;;;;;;;;5107568;28;20054;-73
2023/01/28 08:30:58;;;;;;;10.05;4.00;;;;;;;;;;5107311;28;20063;-74
2023/01/28 08:33:29;;;;;;;14.65;3.85;;;;;;;;;;5107223;28;20056;-73
2023/01/28 08:36:03;;;;;;;11.95;4.28;;;;;;;;;;5105937;28;20046;-74
2023/01/28 08:38:34;;;;;;;10.40;3.80;;;;;;;;;;5106269;28;20074;-74
2023/01/28 08:41:04;;;;;;;10.68;3.63;;;;;;;;;;5106148;28;21101;-74
2023/01/28 08:43:35;;;;;;;8.50;4.50;;;;;;;;;;5106119;28;20384;-73
2023/01/28 08:46:06;;;;;;;12.50;4.57;;;;;;;;;;5105723;28;20043;-74
2023/01/28 08:48:37;;;;;;;8.20;3.88;;;;;;;;;;5106643;28;20046;-74
2023/01/28 08:51:07;;;;;;;6.53;3.92;;;;;;;;;;5107428;28;20048;-74
2023/01/28 08:53:38;;;;;;;6.03;3.88;;;;;;;;;;5107430;28;20043;-74
2023/01/28 08:56:09;;;;;;;10.10;4.25;;;;;;;;;;5107190;28;20058;-74
2023/01/28 08:58:40;;;;;;;7.88;3.58;;;;;;;;;;5106840;28;20048;-73
2023/01/28 09:01:14;;;;;;;8.00;4.00;;;;;;;;;;5106422;28;20055;-74
2023/01/28 09:03:44;;;;;;;13.25;3.30;;;;;;;;;;5106729;28;20044;-74
2023/01/28 09:06:15;;;;;;;4.93;3.78;;;;;;;;;;5106920;28;20048;-74
2023/01/28 09:08:46;;;;;;;12.50;4.00;;;;;;;;;;5106789;28;20055;-74
2023/01/28 09:11:16;;;;;;;7.82;3.42;;;;;;;;;;5106620;28;20058;-73
2023/01/28 09:13:49;;;;;;;7.63;3.92;;;;;;;;;;5106781;28;20035;-74
2023/01/28 09:16:19;;;;;;;11.43;3.70;;;;;;;;;;5107309;28;20047;-76
2023/01/28 09:18:50;;;;;;;10.07;3.70;;;;;;;;;;5104415;28;20059;-74
2023/01/28 09:21:21;;;;;;;5.32;3.45;;;;;;;;;;5107040;28;20047;-74
2023/01/28 09:23:54;;;;;;;11.13;4.38;;;;;;;;;;5106588;28;20043;-73
2023/01/28 09:26:25;;;;;;;8.02;3.72;;;;;;;;;;5104521;28;20056;-74
2023/01/28 09:28:55;;;;;;;8.10;4.10;;;;;;;;;;5106222;28;20059;-74
2023/01/28 09:31:25;;;;;;;9.30;4.25;;;;;;;;;;5106486;28;20074;-73
2023/01/28 09:33:57;;;;;;;8.45;3.90;;;;;;;;;;5107199;28;20421;-74
2023/01/28 09:36:28;;;;;;;10.40;3.67;;;;;;;;;;5088520;28;20524;-74
2023/01/28 09:38:58;;;;;;;6.35;3.63;;;;;;;;;;5106626;28;20047;-74
2023/01/28 09:41:49;;;;;;;5.38;3.58;;;;;;;;;;5106965;28;20059;-74
2023/01/28 09:44:52;;;;;;;7.32;3.90;;;;;;;;;;5106695;28;20044;-74
2023/01/28 09:47:30;;;;;;;10.27;3.22;;;;;;;;;;5105495;28;20044;-74
2023/01/28 09:50:15;;;;;;;11.48;3.30;;;;;;;;;;5106354;28;20512;-74
2023/01/28 09:52:46;;;;;;;6.75;3.67;;;;;;;;;;5106434;28;20424;-74
2023/01/28 09:55:16;;;;;;;7.40;3.75;;;;;;;;;;5109625;28;20052;-74
2023/01/28 09:57:55;;;;;;;6.65;3.17;;;;;;;;;;5110761;28;20059;-74
2023/01/28 10:00:50;;;;;;;8.82;3.17;;;;;;;;;;5109363;27;20425;-74
2023/01/28 10:03:27;;;;;;;9.85;3.25;;;;;;;;;;5106160;28;20067;-74
2023/01/28 10:06:01;;;;;;;9.85;3.78;;;;;;;;;;5109827;28;20059;-75
2023/01/28 10:08:59;;;;;;;6.70;3.28;;;;;;;;;;5109849;28;20058;-75
2023/01/28 10:11:59;;;;;;;5.45;3.45;;;;;;;;;;5109606;28;20517;-75
2023/01/28 10:14:56;;;;;;;6.85;2.95;;;;;;;;;;5091990;28;20517;-75
2023/01/28 10:17:46;;;;;;;6.03;3.10;;;;;;;;;;5109545;28;20051;-78
2023/01/28 10:20:34;;;;;;;8.13;3.10;;;;;;;;;;5108446;28;20047;-75
2023/01/28 10:23:24;;;;;;;10.40;3.53;;;;;;;;;;5109910;28;20051;-78
2023/01/28 10:25:58;;;;;;;9.25;3.53;;;;;;;;;;5108964;28;20043;-74
2023/01/28 10:28:30;;;;;;;6.03;3.88;;;;;;;;;;5109466;28;20734;-74
2023/01/28 10:31:01;;;;;;;10.30;3.20;;;;;;;;;;5109754;28;20059;-73
2023/01/28 10:33:36;;;;;;;8.23;3.08;;;;;;;;;;5110161;28;20149;-76
2023/01/28 10:36:09;;;;;;;5.78;3.17;;;;;;;;;;5110065;28;20063;-76
2023/01/28 10:38:40;;;;;;;5.30;3.10;;;;;;;;;;5109323;28;20051;-74
2023/01/28 10:41:17;;;;;;;9.18;2.70;;;;;;;;;;5108189;28;20513;-76
2023/01/28 10:43:49;;;;;;;4.63;2.72;;;;;;;;;;5109698;28;20489;-76
2023/01/28 10:46:33;;;;;;;9.75;2.50;;;;;;;;;;5108080;27;20052;-77
2023/01/28 10:49:18;;;;;;;9.48;2.45;;;;;;;;;;5108658;28;20046;-76
2023/01/28 10:51:49;;;;;;;5.53;2.72;;;;;;;;;;5109187;28;20052;-74
2023/01/28 10:54:22;;;;;;;7.45;2.55;;;;;;;;;;5108202;28;20703;-74
2023/01/28 10:56:59;;;;;;;5.65;2.55;;;;;;;;;;5108901;28;20039;-77
2023/01/28 10:59:41;;;;;;;6.63;2.40;;;;;;;;;;5108382;28;20114;-75
2023/01/28 11:02:34;;;;;;;4.43;2.10;;;;;;;;;;5109690;28;20051;-75
2023/01/28 11:05:27;;;;;;;5.93;2.40;;;;;;;;;;5109205;28;20422;-77
2023/01/28 11:08:13;;;;;;;7.45;2.22;;;;;;;;;;5109076;28;20044;-74
2023/01/28 11:10:46;;;;;;;8.45;2.83;;;;;;;;;;5107500;27;20051;-75
2023/01/28 11:13:20;;;;;;;8.98;2.53;;;;;;;;;;5108973;28;20066;-74
2023/01/28 11:15:55;;;;;;;8.63;2.75;;;;;;;;;;5108802;28;20466;-74
2023/01/28 11:18:35;;;;;;;8.18;2.47;;;;;;;;;;5109093;28;20065;-76
2023/01/28 11:21:17;;;;;;;7.47;2.80;;;;;;;;;;5108972;28;20043;-75
2023/01/28 11:23:58;;;;;;;8.27;2.67;;;;;;;;;;5109482;28;20052;-77
2023/01/28 11:26:35;;;;;;;8.48;2.65;;;;;;;;;;5108599;28;20043;-75
2023/01/28 11:29:06;;;;;;;10.02;2.42;;;;;;;;;;5108295;28;20039;-74
2023/01/28 11:31:43;;;;;;;6.20;2.20;;;;;;;;;;5107729;28;20047;-75
2023/01/28 11:34:17;;;;;;;4.97;2.10;;;;;;;;;;5108605;28;20417;-74
2023/01/28 11:37:22;;;;;;;2.85;1.90;;;;;;;;;;5108223;28;20419;-75
2023/01/28 11:40:15;;;;;;;10.93;2.40;;;;;;;;;;5094593;28;20043;-77
2023/01/28 11:42:51;;;;;;;4.63;1.98;;;;;;;;;;5108435;28;20039;-79
2023/01/28 11:45:35;;;;;;;5.53;1.98;;;;;;;;;;5108521;28;20517;-76
2023/01/28 11:48:13;;;;;;;6.40;1.77;;;;;;;;;;5108035;28;20036;-75
2023/01/28 11:50:54;;;;;;;3.03;1.90;;;;;;;;;;5106348;28;20161;-75
2023/01/28 11:53:34;;;;;;;6.30;2.08;;;;;;;;;;5108441;28;20040;-74
2023/01/28 11:56:27;;;;;;;5.18;2.20;;;;;;;;;;5107684;28;20052;-75
2023/01/28 11:59:15;;;;;;;8.02;3.13;;;;;;;;;;5108112;28;20533;-74
2023/01/28 12:01:57;;;;;;;6.40;1.85;;;;;;;;;;5108216;28;20066;-75
2023/01/28 12:04:55;;;;;;;7.25;2.20;;;;;;;;;;5107798;28;20504;-75
2023/01/28 12:07:35;;;;;;;4.85;2.20;;;;;;;;;;5108542;28;20048;-75
2023/01/28 12:10:34;;;;;;;5.25;1.60;;;;;;;;;;5107497;28;20055;-75
2023/01/28 12:13:14;;;;;;;;;;;;;;;;;;5107767;28;20052;-75
2023/01/28 12:15:50;;;;;;;5.68;1.70;;;;;;;;;;5106990;28;19924;-79
2023/01/28 12:18:32;;;;;;;2.78;1.50;;;;;;;;;;5106741;28;20047;-77
2023/01/28 12:21:09;;;;;;;4.72;1.63;;;;;;;;;;5106601;28;20066;-74
2023/01/28 12:23:50;;;;;;;3.42;1.88;;;;;;;;;;5105343;28;20418;-74
2023/01/28 12:26:35;;;;;;;4.03;1.60;;;;;;;;;;5107508;28;20047;-75
2023/01/28 12:29:26;;;;;;;4.55;1.58;;;;;;;;;;5107230;28;20502;-75
2023/01/28 12:32:16;;;;;;;7.85;1.80;;;;;;;;;;5107912;28;20044;-75
2023/01/28 12:35:15;;;;;;;4.43;1.65;;;;;;;;;;5107589;28;20051;-75
2023/01/28 12:38:03;;;;;;;5.22;1.63;;;;;;;;;;5105241;28;20047;-74
2023/01/28 12:40:54;;;;;;;4.38;1.60;;;;;;;;;;5107126;28;20052;-75
2023/01/28 12:43:44;;;;;;;3.15;1.40;;;;;;;;;;5095159;28;20060;-75
2023/01/28 12:46:38;;;;;;;4.72;1.80;;;;;;;;;;5094576;28;20056;-74
2023/01/28 12:49:34;;;;;;;4.03;1.52;;;;;;;;;;5076162;28;20069;-76
2023/01/28 12:52:25;;;;;;;4.13;1.77;;;;;;;;;;5107833;28;20047;-76
2023/01/28 12:55:04;;;;;;;4.35;1.67;;;;;;;;;;5107124;28;20040;-82
2023/01/28 12:57:37;;;;;;;4.60;2.20;;;;;;;;;;5106982;28;20059;-77
2023/01/28 13:00:26;;;;;;;6.50;1.75;;;;;;;;;;5107102;28;20047;-75
2023/01/28 13:03:30;;;;;;;5.50;1.80;;;;;;;;;;5106908;28;20059;-74
2023/01/28 13:06:33;;;;;;;6.50;1.70;;;;;;;;;;5106877;28;20042;-75
2023/01/28 13:09:25;;;;;;;6.80;1.67;;;;;;;;;;5106157;28;20044;-75
2023/01/28 13:11:59;;;;;;;8.68;1.63;;;;;;;;;;5107153;28;20524;-75
2023/01/28 13:14:34;;;;;;;5.45;1.80;;;;;;;;;;5105616;28;20055;-75
2023/01/28 13:17:28;;;;;;;3.30;1.55;;;;;;;;;;5106888;28;20982;-76
2023/01/28 13:20:00;;;;;;;4.65;1.90;;;;;;;;;;5106909;28;20587;-76
2023/01/28 13:22:35;;;;;;;8.57;1.75;;;;;;;;;;5106742;28;20047;-76
2023/01/28 13:25:23;;;;;;;3.92;1.90;;;;;;;;;;5105379;28;20070;-75
2023/01/28 13:27:56;;;;;;;5.32;2.30;;;;;;;;;;5105180;28;20050;-75
2023/01/28 13:30:46;;;;;;;3.25;1.77;;;;;;;;;;5110699;28;20539;-75
2023/01/28 13:33:38;;;;;;;10.10;2.20;;;;;;;;;;5110890;28;20066;-76
2023/01/28 13:36:25;;;;;;;10.48;2.00;;;;;;;;;;5110858;28;20048;-75
2023/01/28 13:39:14;;;;;;;7.80;1.85;;;;;;;;;;5110558;28;20047;-73
2023/01/28 13:41:54;;;;;;;8.55;2.65;;;;;;;;;;5108709;28;20055;-75
2023/01/28 13:44:34;;;;;;;2.97;1.63;;;;;;;;;;5110296;28;20040;-75
2023/01/28 13:47:08;;;;;;;7.75;2.13;;;;;;;;;;5110744;28;20044;-76
2023/01/28 13:49:44;;;;;;;4.88;2.33;;;;;;;;;;5110199;28;20409;-77
2023/01/28 13:52:21;;;;;;;6.75;1.60;;;;;;;;;;5110129;28;20046;-77
2023/01/28 13:55:10;;;;;;;5.93;1.70;;;;;;;;;;5110164;28;20050;-76
2023/01/28 13:58:06;;;;;;;5.38;1.83;;;;;;;;;;5109163;28;20414;-75
2023/01/28 14:01:01;;;;;;;7.80;2.03;;;;;;;;;;5110627;28;20552;-76
2023/01/28 14:03:56;;;;;;;4.45;2.15;;;;;;;;;;5110283;28;20409;-76
2023/01/28 14:06:53;;;;;;;6.20;2.00;;;;;;;;;;5110423;28;20043;-75
2023/01/28 14:09:42;;;;;;;5.78;2.25;;;;;;;;;;5109722;28;20051;-75
2023/01/28 14:12:40;;;;;;;6.68;2.10;;;;;;;;;;5108138;28;20047;-75
2023/01/28 14:15:31;;;;;;;7.50;2.25;;;;;;;;;;5109996;28;20413;-76
2023/01/28 14:18:19;;;;;;;5.53;2.72;;;;;;;;;;5109854;28;20056;-76
2023/01/28 14:20:55;;;;;;;4.63;2.03;;;;;;;;;;5109395;28;20051;-76
2023/01/28 14:23:29;;;;;;;3.28;2.03;;;;;;;;;;5110093;28;20046;-74
2023/01/28 14:26:21;;;;;;;4.55;2.30;;;;;;;;;;5110125;28;20048;-76
2023/01/28 14:29:11;;;;;;;9.45;2.38;;;;;;;;;;5109276;28;20040;-80
2023/01/28 14:31:43;;;;;;;8.25;2.22;;;;;;;;;;5109916;28;20039;-75
2023/01/28 14:34:36;;;;;;;7.05;3.17;;;;;;;;;;5109727;28;20043;-75
2023/01/28 14:37:12;;;;;;;7.53;2.35;;;;;;;;;;5115635;27;20504;-75
2023/01/28 14:39:50;;;;;;;5.68;2.20;;;;;;;;;;5111359;27;20040;-78
2023/01/28 14:42:32;;;;;;;8.73;2.60;;;;;;;;;;5109626;28;20048;-74
2023/01/28 14:45:21;;;;;;;4.35;2.40;;;;;;;;;;5109462;28;20044;-74
2023/01/28 14:48:06;;;;;;;5.75;2.60;;;;;;;;;;5109546;28;20050;-75
2023/01/28 14:51:01;;;;;;;8.73;2.53;;;;;;;;;;5108334;28;20054;-75
2023/01/28 14:53:50;;;;;;;4.82;2.40;;;;;;;;;;5109239;28;20067;-76
2023/01/28 14:56:39;;;;;;;7.13;1.90;;;;;;;;;;5109493;28;20058;-74
2023/01/28 14:59:18;;;;;;;4.40;2.30;;;;;;;;;;5109145;28;20046;-76
2023/01/28 15:01:53;;;;;;;7.70;2.28;;;;;;;;;;5108814;28;20039;-76
2023/01/28 15:04:29;;;;;;;4.57;2.03;;;;;;;;;;5109089;28;20043;-75
2023/01/28 15:07:25;;;;;;;6.15;1.77;;;;;;;;;;5108923;28;20040;-75
2023/01/28 15:10:16;;;;;;;4.70;2.17;;;;;;;;;;5108619;28;20054;-75
2023/01/28 15:13:09;;;;;;;4.90;2.00;;;;;;;;;;5108985;28;20058;-75
2023/01/28 15:15:41;;;;;;;4.53;1.90;;;;;;;;;;5109331;28;20042;-76
2023/01/28 15:18:24;;;;;;;6.55;2.30;;;;;;;;;;5107822;28;20055;-75
2023/01/28 15:20:55;;;;;;;6.43;2.25;;;;;;;;;;5108641;28;20054;-75
2023/01/28 15:23:37;;;;;;;7.05;2.10;;;;;;;;;;5108608;28;20043;-76
2023/01/28 15:26:18;;;;;;;5.65;1.92;;;;;;;;;;5108524;28;20044;-76
2023/01/28 15:28:49;;;;;;;4.38;1.90;;;;;;;;;;5108399;28;20056;-75
2023/01/28 15:31:20;;;;;;;2.92;1.80;;;;;;;;;;5109761;28;20048;-76
2023/01/28 15:34:01;;;;;;;5.00;1.92;;;;;;;;;;5109385;28;20039;-75
2023/01/28 15:36:32;;;;;;;3.75;2.17;;;;;;;;;;5108450;28;20386;-75
2023/01/28 15:39:03;;;;;;;7.35;2.30;;;;;;;;;;5107618;28;20062;-76
2023/01/28 15:41:38;;;;;;;7.00;2.20;;;;;;;;;;5107840;28;20052;-76
2023/01/28 15:44:17;;;;;;;4.60;2.10;;;;;;;;;;5108533;28;20055;-75
2023/01/28 15:46:49;;;;;;;5.00;1.85;;;;;;;;;;5109718;28;20050;-76
2023/01/28 15:49:20;;;;;;;6.53;1.80;;;;;;;;;;5107716;28;20048;-76
2023/01/28 15:51:50;;;;;;;3.58;1.88;;;;;;;;;;5110794;28;20047;-75
2023/01/28 15:54:22;;;;;;;3.80;1.98;;;;;;;;;;5108994;28;20047;-75
2023/01/28 15:56:53;;;;;;;3.30;1.50;;;;;;;;;;5108532;28;20047;-78
2023/01/28 15:59:31;;;;;;;5.70;1.63;;;;;;;;;;5108575;28;20043;-75
2023/01/28 16:02:23;;;;;;;2.67;1.60;;;;;;;;;;5107508;28;20047;-74
2023/01/28 16:05:01;;;;;;;4.95;1.65;;;;;;;;;;5108595;28;20035;-75
2023/01/28 16:07:34;;;;;;;5.00;1.65;;;;;;;;;;5108535;28;20727;-74
2023/01/28 16:10:06;;;;;;;4.15;1.73;;;;;;;;;;5108239;28;20683;-79
2023/01/28 16:12:37;;;;;;;7.03;2.00;;;;;;;;;;5107705;28;20539;-74
2023/01/28 16:15:17;;;;;;;2.38;1.60;;;;;;;;;;5107828;28;20406;-76
2023/01/28 16:17:51;;;;;;;3.33;1.42;;;;;;;;;;5106605;28;20051;-75
2023/01/28 16:20:27;;;;;;;6.72;2.10;;;;;;;;;;5108012;28;20047;-74
2023/01/28 16:23:03;;;;;;;4.00;1.70;;;;;;;;;;5108142;28;20082;-74
2023/01/28 16:25:38;;;;;;;5.00;1.70;;;;;;;;;;5105962;28;20047;-74
2023/01/28 16:28:19;;;;;;;6.57;1.60;;;;;;;;;;5105897;28;20063;-75
2023/01/28 16:30:50;;;;;;;3.30;1.80;;;;;;;;;;5105340;28;20043;-75
2023/01/28 16:33:23;;;;;;;5.15;1.70;;;;;;;;;;5106916;28;20062;-75
2023/01/28 16:35:54;;;;;;;7.00;1.60;;;;;;;;;;5107493;28;20055;-75